Time;durP1;ratioP1;P1;durP2;ratioP2;P2;SDS_P1;SDS_P2;PMS_P1;PMS_P2;Temp;Humidity;BMP_temperature;BMP_pressure;BME280_temperature;BME280_humidity;BME280_pressure;Samples;Min_cycle;Max_cycle;Signal;HPM_P1;HPM_P2
2021/07/31 00:00:23;;;;;;;4.88;1.00;;;15.90;99.90;;;;;;4930648;29;20064;-79
2021/07/31 00:02:52;;;;;;;5.80;0.45;;;15.90;99.90;;;;;;4931021;29;20043;-80
2021/07/31 00:05:18;;;;;;;5.33;0.50;;;15.80;99.90;;;;;;4930865;29;20046;-80
2021/07/31 00:07:44;;;;;;;3.10;0.40;;;15.90;99.90;;;;;;4914897;29;20028;-81
2021/07/31 00:10:13;;;;;;;2.88;0.40;;;15.90;99.90;;;;;;4930608;29;20036;-81
2021/07/31 00:12:38;;;;;;;2.72;0.30;;;16.00;99.90;;;;;;4915188;29;20035;-83
2021/07/31 00:15:05;;;;;;;2.15;0.45;;;16.00;99.90;;;;;;4930612;29;20047;-82
2021/07/31 00:17:30;;;;;;;2.72;0.30;;;16.00;99.90;;;;;;4949369;29;20039;-81
2021/07/31 00:19:56;;;;;;;2.53;0.40;;;16.00;99.90;;;;;;4965746;29;20027;-81
2021/07/31 00:22:22;;;;;;;2.67;0.40;;;15.90;99.90;;;;;;4965882;29;20507;-80
2021/07/31 00:24:47;;;;;;;4.45;0.45;;;15.90;99.90;;;;;;4965929;29;20480;-81
2021/07/31 00:27:13;;;;;;;2.88;0.40;;;15.90;99.90;;;;;;4949821;29;20491;-81
2021/07/31 00:29:39;;;;;;;4.60;0.47;;;15.80;99.90;;;;;;4965734;29;20051;-80
2021/07/31 00:32:05;;;;;;;3.35;0.40;;;15.80;99.90;;;;;;4965491;29;20031;-81
2021/07/31 00:34:30;;;;;;;2.65;0.40;;;15.70;99.90;;;;;;4965626;29;20037;-81
2021/07/31 00:36:56;;;;;;;2.40;0.50;;;15.70;99.90;;;;;;4946566;29;20039;-81
2021/07/31 00:39:21;;;;;;;4.30;0.40;;;15.70;99.90;;;;;;4895837;29;20028;-82
2021/07/31 00:41:47;;;;;;;1.77;0.40;;;15.80;99.90;;;;;;4896214;29;20039;-80
2021/07/31 00:44:13;;;;;;;3.25;0.45;;;15.80;99.90;;;;;;4911701;29;20092;-81
2021/07/31 00:46:39;;;;;;;4.78;0.60;;;15.80;99.90;;;;;;4899122;29;20039;-81
2021/07/31 00:49:05;;;;;;;3.40;0.40;;;15.70;99.90;;;;;;4899418;29;20048;-81
2021/07/31 00:51:31;;;;;;;4.13;0.50;;;15.80;99.90;;;;;;4915151;29;20056;-81
2021/07/31 00:53:57;;;;;;;2.72;0.40;;;15.80;99.90;;;;;;4915405;29;20028;-82
2021/07/31 00:56:23;;;;;;;2.75;0.50;;;15.90;99.90;;;;;;4899373;29;20044;-81
2021/07/31 00:58:49;;;;;;;2.15;0.40;;;15.90;99.90;;;;;;4899485;29;20033;-81
2021/07/31 01:01:18;;;;;;;4.90;0.40;;;15.90;99.90;;;;;;4899836;29;20032;-81
2021/07/31 01:03:45;;;;;;;1.90;0.50;;;15.90;99.90;;;;;;4915203;29;20039;-81
2021/07/31 01:06:11;;;;;;;4.30;0.47;;;15.90;99.90;;;;;;4914884;29;20040;-82
2021/07/31 01:08:37;;;;;;;3.85;0.47;;;15.90;99.90;;;;;;4899294;29;20020;-81
2021/07/31 01:11:03;;;;;;;2.72;0.50;;;15.90;99.90;;;;;;4899423;29;20024;-80
2021/07/31 01:13:31;;;;;;;3.10;1.00;;;15.90;99.90;;;;;;4899799;29;20121;-80
2021/07/31 01:16:07;;;;;;;3.05;0.93;;;15.90;99.90;;;;;;4926988;29;20050;-81
2021/07/31 01:18:35;;;;;;;5.28;0.73;;;15.90;99.90;;;;;;4952827;29;20034;-82
2021/07/31 01:21:04;;;;;;;4.28;0.50;;;15.90;99.90;;;;;;4952816;29;20114;-81
2021/07/31 01:23:32;;;;;;;4.50;0.50;;;16.00;99.90;;;;;;4969475;29;20035;-82
2021/07/31 01:25:58;;;;;;;2.05;0.40;;;16.00;99.90;;;;;;4969977;29;20035;-81
2021/07/31 01:28:24;;;;;;;2.95;0.50;;;16.00;99.90;;;;;;4954418;29;20502;-82
2021/07/31 01:30:51;;;;;;;2.40;0.60;;;16.00;99.90;;;;;;4968576;29;20030;-81
2021/07/31 01:33:17;;;;;;;4.03;0.60;;;16.00;99.90;;;;;;4968444;29;20034;-81
2021/07/31 01:35:43;;;;;;;3.33;0.60;;;16.00;99.90;;;;;;4952428;29;20058;-81
2021/07/31 01:38:29;;;;;;;5.50;0.60;;;15.90;99.90;;;;;;4933251;29;20028;-81
2021/07/31 01:40:55;;;;;;;4.72;0.60;;;16.00;99.90;;;;;;4917542;29;20031;-80
2021/07/31 01:43:21;;;;;;;6.35;0.95;;;16.00;99.90;;;;;;4917548;29;20038;-82
2021/07/31 01:45:47;;;;;;;4.10;0.60;;;16.00;99.90;;;;;;4917571;29;20032;-82
2021/07/31 01:48:13;;;;;;;3.63;0.50;;;16.00;99.90;;;;;;4916917;29;20051;-82
2021/07/31 01:50:42;;;;;;;5.72;0.70;;;16.00;99.90;;;;;;4917511;29;20034;-82
2021/07/31 01:53:09;;;;;;;4.88;0.60;;;16.00;99.90;;;;;;4901121;29;20039;-79
2021/07/31 01:55:35;;;;;;;5.20;0.80;;;16.00;99.90;;;;;;4913696;29;20048;-80
2021/07/31 01:58:03;;;;;;;7.68;0.73;;;16.00;99.90;;;;;;4897638;29;20039;-81
2021/07/31 02:00:54;;;;;;;3.88;0.80;;;16.10;99.90;;;;;;4925254;29;20055;-80
2021/07/31 02:03:20;;;;;;;3.47;0.70;;;16.00;99.90;;;;;;4913655;29;20055;-81
2021/07/31 02:06:05;;;;;;;3.38;0.50;;;16.00;99.90;;;;;;4916482;29;20113;-81
2021/07/31 02:08:32;;;;;;;6.75;0.70;;;16.00;99.90;;;;;;4898038;29;20086;-81
2021/07/31 02:10:58;;;;;;;4.93;0.60;;;16.00;99.90;;;;;;4897999;29;20501;-82
2021/07/31 02:13:24;;;;;;;3.92;0.70;;;16.00;99.90;;;;;;4898126;29;20032;-82
2021/07/31 02:15:50;;;;;;;5.78;0.60;;;16.00;99.90;;;;;;4908947;29;20083;-82
2021/07/31 02:18:24;;;;;;;7.55;0.80;;;16.00;99.90;;;;;;4966358;29;20034;-81
2021/07/31 02:20:51;;;;;;;4.90;0.75;;;16.00;99.90;;;;;;4967211;29;20039;-82
2021/07/31 02:23:30;;;;;;;2.20;0.70;;;16.00;99.90;;;;;;4951587;29;20034;-82
2021/07/31 02:26:14;;;;;;;8.30;1.45;;;16.00;99.90;;;;;;4967570;29;20089;-82
2021/07/31 02:29:00;;;;;;;3.60;0.93;;;16.00;99.90;;;;;;4964531;29;20038;-82
2021/07/31 02:31:28;;;;;;;7.22;0.90;;;16.10;99.90;;;;;;4967033;29;20031;-81
2021/07/31 02:33:54;;;;;;;6.93;0.70;;;16.00;99.90;;;;;;4951109;29;20029;-82
2021/07/31 02:36:22;;;;;;;8.43;0.70;;;16.10;99.90;;;;;;4956188;29;20032;-82
2021/07/31 02:38:58;;;;;;;5.28;0.57;;;16.00;99.90;;;;;;4913455;29;20043;-83
2021/07/31 02:41:24;;;;;;;4.63;0.98;;;16.00;99.90;;;;;;4897636;29;20039;-81
2021/07/31 02:43:51;;;;;;;2.92;0.70;;;16.10;99.90;;;;;;4897901;29;20036;-83
2021/07/31 02:46:37;;;;;;;3.85;0.60;;;16.10;99.90;;;;;;4897435;29;20028;-82
2021/07/31 02:49:03;;;;;;;3.38;0.80;;;16.10;99.90;;;;;;4834399;29;20050;-81
2021/07/31 02:51:29;;;;;;;4.47;0.80;;;16.10;99.90;;;;;;4819304;29;20091;-82
2021/07/31 02:53:57;;;;;;;4.25;0.68;;;16.10;99.90;;;;;;4835271;29;20563;-81
2021/07/31 02:56:23;;;;;;;3.00;0.60;;;16.10;99.90;;;;;;4819451;29;20080;-82
2021/07/31 02:58:50;;;;;;;2.40;0.63;;;16.10;99.90;;;;;;4834816;29;20090;-82
2021/07/31 03:01:16;;;;;;;2.67;0.50;;;16.10;99.90;;;;;;4834808;29;20050;-82
2021/07/31 03:03:42;;;;;;;5.10;0.90;;;16.10;99.90;;;;;;4819404;29;20027;-81
2021/07/31 03:06:09;;;;;;;3.90;0.63;;;16.10;99.90;;;;;;4834478;29;20034;-81
2021/07/31 03:08:37;;;;;;;3.22;1.23;;;16.10;99.90;;;;;;4834550;29;20204;-83
2021/07/31 03:11:05;;;;;;;3.78;0.82;;;16.10;99.90;;;;;;4834791;29;20026;-81
2021/07/31 03:13:32;;;;;;;4.50;1.00;;;16.00;99.90;;;;;;4820601;29;20047;-82
2021/07/31 03:15:58;;;;;;;5.25;0.70;;;16.10;99.90;;;;;;4837647;29;20046;-82
2021/07/31 03:18:25;;;;;;;4.47;0.68;;;16.10;99.90;;;;;;4849174;29;20034;-84
2021/07/31 03:20:53;;;;;;;5.50;0.73;;;16.10;99.90;;;;;;4849886;29;20042;-82
2021/07/31 03:23:27;;;;;;;5.63;1.00;;;16.00;99.90;;;;;;4848480;29;20098;-82
2021/07/31 03:26:00;;;;;;;4.95;0.80;;;16.10;99.90;;;;;;4883300;29;20051;-82
2021/07/31 03:28:27;;;;;;;3.22;0.73;;;16.00;99.90;;;;;;4896856;29;20396;-81
2021/07/31 03:30:56;;;;;;;4.22;1.13;;;16.00;99.90;;;;;;4897411;29;20328;-81
2021/07/31 03:33:22;;;;;;;2.58;0.70;;;16.00;99.90;;;;;;4912759;29;20032;-81
2021/07/31 03:35:51;;;;;;;5.30;0.80;;;16.00;99.90;;;;;;4928753;29;20096;-81
2021/07/31 03:38:33;;;;;;;4.88;0.75;;;16.00;99.90;;;;;;4931301;29;20099;-80
2021/07/31 03:40:59;;;;;;;5.07;0.88;;;16.00;99.90;;;;;;4948596;29;20044;-82
2021/07/31 03:43:30;;;;;;;4.85;1.20;;;16.00;99.90;;;;;;4916251;29;20024;-80
2021/07/31 03:45:56;;;;;;;4.25;0.90;;;15.90;99.90;;;;;;4931194;29;20047;-79
2021/07/31 03:48:21;;;;;;;5.07;0.88;;;15.90;99.90;;;;;;4914902;29;20055;-80
2021/07/31 03:50:48;;;;;;;6.25;1.23;;;15.80;99.90;;;;;;4915464;29;20042;-80
2021/07/31 03:53:19;;;;;;;3.67;0.77;;;15.70;99.90;;;;;;4915960;29;20024;-80
2021/07/31 03:55:47;;;;;;;3.95;1.25;;;15.70;99.90;;;;;;4930796;29;20067;-79
2021/07/31 03:58:13;;;;;;;5.20;1.20;;;15.60;99.90;;;;;;4930704;29;20028;-80
2021/07/31 04:00:40;;;;;;;5.13;1.10;;;15.50;99.90;;;;;;4932235;29;20056;-79
2021/07/31 04:03:10;;;;;;;4.60;0.93;;;15.50;99.90;;;;;;4932500;29;20059;-80
2021/07/31 04:05:39;;;;;;;5.10;0.90;;;15.40;99.90;;;;;;4931789;29;20032;-81
2021/07/31 04:08:34;;;;;;;4.25;1.15;;;15.40;99.90;;;;;;4934829;29;20128;-80
2021/07/31 04:11:18;;;;;;;3.50;1.20;;;15.40;99.90;;;;;;4933645;29;20046;-80
2021/07/31 04:14:03;;;;;;;6.10;1.00;;;15.30;99.90;;;;;;4933441;29;20051;-79
2021/07/31 04:16:38;;;;;;;5.03;1.17;;;15.30;99.90;;;;;;4927676;29;20039;-79
2021/07/31 04:19:03;;;;;;;4.65;1.50;;;15.30;99.90;;;;;;4949653;28;20039;-80
2021/07/31 04:21:30;;;;;;;4.55;1.70;;;15.20;99.90;;;;;;4969074;29;20059;-80
2021/07/31 04:23:56;;;;;;;4.50;1.30;;;15.20;99.90;;;;;;4971214;29;20027;-79
2021/07/31 04:26:22;;;;;;;3.92;1.77;;;15.20;99.90;;;;;;4969864;29;20034;-79
2021/07/31 04:28:48;;;;;;;7.63;2.78;;;15.10;99.90;;;;;;4953574;29;20122;-79
2021/07/31 04:31:15;;;;;;;6.40;2.65;;;15.00;99.90;;;;;;4969730;29;20039;-79
2021/07/31 04:33:41;;;;;;;5.10;2.28;;;15.00;99.90;;;;;;4953673;29;20046;-78
2021/07/31 04:36:08;;;;;;;5.45;2.35;;;14.90;99.90;;;;;;4950227;29;20043;-79
2021/07/31 04:38:34;;;;;;;6.47;3.47;;;14.80;99.90;;;;;;4951372;29;20027;-78
2021/07/31 04:41:01;;;;;;;8.57;3.55;;;14.80;99.90;;;;;;4951099;29;20106;-78
2021/07/31 04:43:27;;;;;;;6.25;3.70;;;14.80;99.90;;;;;;4933863;29;20038;-78
2021/07/31 04:45:53;;;;;;;5.35;2.35;;;14.90;99.90;;;;;;4950875;29;20384;-78
2021/07/31 04:48:18;;;;;;;9.93;3.53;;;15.00;99.90;;;;;;4950492;29;20108;-77
2021/07/31 04:50:44;;;;;;;10.40;3.40;;;15.00;99.90;;;;;;4951039;29;20055;-78
2021/07/31 04:53:10;;;;;;;7.68;3.38;;;15.00;99.90;;;;;;4950872;29;20118;-79
2021/07/31 04:55:35;;;;;;;5.68;2.83;;;15.00;99.90;;;;;;4917823;29;20046;-79
2021/07/31 04:58:01;;;;;;;6.95;3.75;;;15.10;99.90;;;;;;4917777;29;20063;-78
2021/07/31 05:00:26;;;;;;;6.85;3.00;;;15.00;99.90;;;;;;4933669;29;20028;-79
2021/07/31 05:02:52;;;;;;;5.60;2.70;;;15.00;99.90;;;;;;4933743;29;20127;-78
2021/07/31 05:05:17;;;;;;;6.10;2.13;;;15.00;99.90;;;;;;4950618;29;20154;-80
2021/07/31 05:07:43;;;;;;;4.75;2.05;;;15.00;99.90;;;;;;4949271;29;20061;-78
2021/07/31 05:10:09;;;;;;;3.08;1.90;;;15.10;99.90;;;;;;4933413;29;20091;-78
2021/07/31 05:12:35;;;;;;;5.45;2.78;;;15.00;99.90;;;;;;4933494;29;20224;-78
2021/07/31 05:15:01;;;;;;;4.50;1.90;;;15.00;99.90;;;;;;4950340;29;20084;-79
2021/07/31 05:17:26;;;;;;;5.15;2.72;;;15.00;99.90;;;;;;4968411;29;20035;-79
2021/07/31 05:19:52;;;;;;;5.05;2.55;;;15.00;99.90;;;;;;4952127;29;20070;-80
2021/07/31 05:22:18;;;;;;;4.15;2.63;;;15.00;99.90;;;;;;4969582;29;20178;-79
2021/07/31 05:24:44;;;;;;;4.45;2.35;;;15.10;99.90;;;;;;4968279;29;20428;-79
2021/07/31 05:27:10;;;;;;;6.20;2.33;;;15.10;99.90;;;;;;4968215;29;20039;-78
2021/07/31 05:29:36;;;;;;;4.25;1.65;;;15.10;99.90;;;;;;4968076;29;20106;-79
2021/07/31 05:32:02;;;;;;;6.82;1.52;;;15.00;99.90;;;;;;4968008;28;20031;-80
2021/07/31 05:34:28;;;;;;;3.05;0.80;;;15.10;99.90;;;;;;4951915;29;20058;-79
2021/07/31 05:36:53;;;;;;;4.18;1.45;;;15.20;99.90;;;;;;4960042;29;20507;-79
2021/07/31 05:39:19;;;;;;;6.35;1.67;;;15.10;99.90;;;;;;4932554;29;20069;-79
2021/07/31 05:41:45;;;;;;;3.10;1.20;;;15.10;99.90;;;;;;4933062;29;20035;-79
2021/07/31 05:44:10;;;;;;;3.35;1.50;;;15.20;99.90;;;;;;4933007;29;20035;-79
2021/07/31 05:46:59;;;;;;;2.58;1.48;;;15.20;99.90;;;;;;4932547;29;20043;-79
2021/07/31 05:49:24;;;;;;;6.82;1.90;;;15.40;99.90;;;;;;4856135;29;20053;-78
2021/07/31 05:51:50;;;;;;;3.40;1.90;;;15.40;99.90;;;;;;4856674;29;20113;-79
2021/07/31 05:54:15;;;;;;;4.75;2.50;;;15.50;99.90;;;;;;4856428;29;20041;-83
2021/07/31 05:56:42;;;;;;;6.28;4.10;;;15.50;99.90;;;;;;4856342;29;20050;-79
2021/07/31 05:59:07;;;;;;;5.00;2.95;;;15.50;99.90;;;;;;4856328;29;20030;-79
2021/07/31 06:01:35;;;;;;;4.63;3.20;;;15.40;99.90;;;;;;4871898;29;20074;-79
2021/07/31 06:04:01;;;;;;;6.25;3.33;;;15.50;99.90;;;;;;4871784;29;20042;-79
2021/07/31 06:06:27;;;;;;;7.53;2.85;;;15.50;99.90;;;;;;4871921;29;20045;-81
2021/07/31 06:08:53;;;;;;;4.38;2.55;;;15.60;99.90;;;;;;4871539;29;20053;-79
2021/07/31 06:11:18;;;;;;;9.13;3.28;;;15.60;99.90;;;;;;4856310;29;20503;-79
2021/07/31 06:13:44;;;;;;;5.53;3.40;;;15.50;99.90;;;;;;4856290;29;20045;-79
2021/07/31 06:16:09;;;;;;;6.75;3.70;;;15.40;99.90;;;;;;4863611;29;20124;-80
2021/07/31 06:18:40;;;;;;;7.97;4.22;;;15.40;99.90;;;;;;4890096;29;20109;-80
2021/07/31 06:21:05;;;;;;;;;;;15.40;99.90;;;;;;4890614;29;20076;-80
2021/07/31 06:23:31;;;;;;;5.68;3.10;;;15.60;99.90;;;;;;4874539;29;19915;-82
2021/07/31 06:26:01;;;;;;;5.25;1.90;;;15.60;99.90;;;;;;4891549;29;20079;-81
2021/07/31 06:28:27;;;;;;;6.32;2.67;;;15.60;99.90;;;;;;4931831;29;20040;-81
2021/07/31 06:30:56;;;;;;;4.82;1.90;;;15.80;99.90;;;;;;4931923;29;20067;-81
2021/07/31 06:33:28;;;;;;;6.93;3.47;;;15.90;99.90;;;;;;4931816;29;20046;-81
2021/07/31 06:35:54;;;;;;;5.05;3.03;;;16.00;99.90;;;;;;4929006;29;20063;-80
2021/07/31 06:38:20;;;;;;;6.68;1.67;;;16.00;99.90;;;;;;4878485;29;20032;-83
2021/07/31 06:40:45;;;;;;;5.03;3.03;;;16.30;99.90;;;;;;4892583;29;20055;-79
2021/07/31 06:43:11;;;;;;;4.90;2.72;;;16.40;99.90;;;;;;4904061;29;20381;-80
2021/07/31 06:45:36;;;;;;;7.70;3.08;;;16.60;99.90;;;;;;4909818;29;20071;-80
2021/07/31 06:48:02;;;;;;;6.35;2.83;;;16.70;99.90;;;;;;4922567;23;20384;-80
2021/07/31 06:50:28;;;;;;;6.85;3.35;;;16.70;99.90;;;;;;4913208;29;20042;-81
2021/07/31 06:52:53;;;;;;;10.80;3.83;;;16.60;99.90;;;;;;4932135;29;20139;-80
2021/07/31 06:55:19;;;;;;;6.43;2.88;;;16.50;99.90;;;;;;4931567;29;20046;-80
2021/07/31 06:57:45;;;;;;;6.28;2.85;;;16.90;99.90;;;;;;4915927;29;20095;-80
2021/07/31 07:00:13;;;;;;;7.40;2.33;;;17.10;99.90;;;;;;4932894;23;20051;-79
2021/07/31 07:02:39;;;;;;;5.65;3.10;;;17.00;99.90;;;;;;4931655;29;20035;-79
2021/07/31 07:05:05;;;;;;;6.10;2.60;;;16.80;99.90;;;;;;4931520;29;20074;-80
2021/07/31 07:07:31;;;;;;;4.30;2.33;;;17.00;99.90;;;;;;4916154;29;20102;-79
2021/07/31 07:09:56;;;;;;;4.90;2.13;;;17.00;99.90;;;;;;4915598;29;20465;-79
2021/07/31 07:12:25;;;;;;;5.72;2.78;;;16.60;99.90;;;;;;4931571;29;20032;-81
2021/07/31 07:14:50;;;;;;;3.38;1.73;;;16.50;99.90;;;;;;4947294;29;20040;-80
2021/07/31 07:17:16;;;;;;;2.97;2.20;;;16.50;99.90;;;;;;4947933;29;20035;-81
2021/07/31 07:19:42;;;;;;;4.57;2.60;;;16.40;99.90;;;;;;4965942;29;20032;-80
2021/07/31 07:22:07;;;;;;;5.72;2.95;;;16.40;99.90;;;;;;4967379;29;20087;-80
2021/07/31 07:24:35;;;;;;;6.30;3.60;;;16.40;99.90;;;;;;4949861;29;20023;-79
2021/07/31 07:27:03;;;;;;;3.97;3.58;;;16.20;99.90;;;;;;4965625;29;20037;-79
2021/07/31 07:29:29;;;;;;;4.90;3.45;;;16.30;99.90;;;;;;4930240;29;20032;-80
2021/07/31 07:31:55;;;;;;;4.75;2.83;;;16.20;99.90;;;;;;4921388;29;20162;-81
2021/07/31 07:34:20;;;;;;;6.75;4.22;;;16.20;99.90;;;;;;4920925;29;20193;-80
2021/07/31 07:36:46;;;;;;;5.75;4.13;;;16.10;99.90;;;;;;4937049;29;20055;-80
2021/07/31 07:39:12;;;;;;;5.75;3.70;;;16.10;99.90;;;;;;4937265;29;20047;-80
2021/07/31 07:41:37;;;;;;;6.63;3.33;;;16.10;99.90;;;;;;4936226;29;20024;-81
2021/07/31 07:44:03;;;;;;;4.35;2.78;;;16.10;99.90;;;;;;4912933;29;20020;-80
2021/07/31 07:46:29;;;;;;;5.65;4.07;;;16.20;99.90;;;;;;4927203;29;20110;-80
2021/07/31 07:48:54;;;;;;;3.63;2.20;;;16.20;99.90;;;;;;4926969;29;20044;-80
2021/07/31 07:51:20;;;;;;;6.45;3.58;;;16.30;99.90;;;;;;4918963;29;20021;-79
2021/07/31 07:53:46;;;;;;;5.25;2.92;;;16.40;99.90;;;;;;4937488;29;20043;-80
2021/07/31 07:56:11;;;;;;;4.45;2.42;;;16.50;99.90;;;;;;4936113;29;20114;-80
2021/07/31 07:58:37;;;;;;;3.25;2.10;;;16.40;99.90;;;;;;4919230;29;20032;-78
2021/07/31 08:01:06;;;;;;;3.53;2.22;;;16.50;99.90;;;;;;4940365;29;20111;-80
2021/07/31 08:03:31;;;;;;;3.65;3.35;;;16.60;99.90;;;;;;4929968;29;20028;-79
2021/07/31 08:05:57;;;;;;;5.95;2.38;;;16.40;99.90;;;;;;4914495;29;20076;-80
2021/07/31 08:08:22;;;;;;;4.72;2.72;;;16.50;99.90;;;;;;4945979;29;20027;-79
2021/07/31 08:10:49;;;;;;;3.53;3.05;;;16.60;99.90;;;;;;4927805;29;20040;-79
2021/07/31 08:13:15;;;;;;;5.90;3.38;;;16.60;99.90;;;;;;4925904;29;20481;-80
2021/07/31 08:15:41;;;;;;;5.10;3.75;;;16.40;99.90;;;;;;4930545;29;20049;-80
2021/07/31 08:18:07;;;;;;;5.07;4.15;;;16.20;99.90;;;;;;4955544;29;20035;-80
2021/07/31 08:20:32;;;;;;;7.05;5.00;;;16.20;99.90;;;;;;4923981;29;20082;-81
2021/07/31 08:22:58;;;;;;;4.95;4.00;;;16.10;99.90;;;;;;4935490;29;20032;-80
2021/07/31 08:25:23;;;;;;;4.00;3.50;;;16.20;99.90;;;;;;4929111;29;20134;-80
2021/07/31 08:27:49;;;;;;;9.73;5.05;;;16.20;99.90;;;;;;4925607;29;20028;-81
2021/07/31 08:30:15;;;;;;;5.38;4.45;;;16.00;99.90;;;;;;4947171;29;20055;-80
2021/07/31 08:32:43;;;;;;;8.20;6.07;;;16.00;99.90;;;;;;4947086;29;20091;-79
2021/07/31 08:35:10;;;;;;;5.95;4.40;;;16.00;99.90;;;;;;4947118;29;20036;-80
2021/07/31 08:37:37;;;;;;;6.57;5.57;;;16.10;99.90;;;;;;4945541;29;20028;-79
2021/07/31 08:40:06;;;;;;;5.95;5.38;;;16.00;99.90;;;;;;4914180;29;20047;-80
2021/07/31 08:42:33;;;;;;;5.95;5.25;;;16.20;99.90;;;;;;4946972;29;20028;-81
2021/07/31 08:44:59;;;;;;;8.57;5.70;;;16.60;99.90;;;;;;4914141;29;20451;-80
2021/07/31 08:47:27;;;;;;;9.20;5.75;;;16.60;99.90;;;;;;4923988;29;20056;-80
2021/07/31 08:49:53;;;;;;;10.30;7.22;;;16.80;99.90;;;;;;4946879;29;20028;-79
2021/07/31 08:52:21;;;;;;;8.13;5.60;;;16.70;99.90;;;;;;4945756;29;20101;-80
2021/07/31 08:54:46;;;;;;;7.18;5.45;;;16.90;99.90;;;;;;4929768;29;20107;-81
2021/07/31 08:57:12;;;;;;;6.35;4.05;;;17.30;99.90;;;;;;4945396;29;20489;-81
2021/07/31 08:59:37;;;;;;;5.97;5.30;;;17.80;99.90;;;;;;4929803;29;20048;-82
2021/07/31 09:02:03;;;;;;;7.55;4.90;;;17.40;99.90;;;;;;4945399;29;20039;-80
2021/07/31 09:04:29;;;;;;;5.65;3.08;;;17.30;99.90;;;;;;4929659;29;20076;-82
2021/07/31 09:06:55;;;;;;;8.32;4.05;;;17.50;99.90;;;;;;4928360;29;20063;-81
2021/07/31 09:09:26;;;;;;;6.57;2.88;;;17.40;99.90;;;;;;4899989;29;20040;-80
2021/07/31 09:12:00;;;;;;;6.15;3.08;;;17.40;99.90;;;;;;4914259;29;20067;-80
2021/07/31 09:14:27;;;;;;;4.07;2.70;;;17.30;99.90;;;;;;4921036;29;20134;-80
2021/07/31 09:16:54;;;;;;;6.85;3.20;;;17.60;99.90;;;;;;4962355;29;20054;-78
2021/07/31 09:19:21;;;;;;;5.40;2.67;;;17.40;99.90;;;;;;4969502;29;20090;-81
2021/07/31 09:21:49;;;;;;;3.67;2.55;;;17.30;99.90;;;;;;4968351;29;20043;-80
2021/07/31 09:24:22;;;;;;;5.45;3.40;;;17.30;99.90;;;;;;4968358;29;20024;-81
2021/07/31 09:26:53;;;;;;;2.83;2.25;;;17.10;99.90;;;;;;4935634;29;20028;-80
2021/07/31 09:29:30;;;;;;;5.57;2.38;;;17.10;99.90;;;;;;4959007;29;20111;-81
2021/07/31 09:32:04;;;;;;;5.25;3.00;;;17.10;99.90;;;;;;4932592;29;20039;-82
2021/07/31 09:34:46;;;;;;;4.80;3.20;;;17.00;99.90;;;;;;4933313;29;20047;-84
2021/07/31 09:37:23;;;;;;;4.43;2.60;;;17.00;99.90;;;;;;4917358;29;20043;-82
2021/07/31 09:39:56;;;;;;;4.22;1.88;;;17.10;99.90;;;;;;4917396;29;20039;-82
2021/07/31 09:42:39;;;;;;;5.13;2.38;;;17.10;99.90;;;;;;4917084;29;20031;-83
2021/07/31 09:45:09;;;;;;;4.68;2.20;;;16.90;99.90;;;;;;4932794;29;20102;-80
2021/07/31 09:47:36;;;;;;;4.30;1.85;;;17.00;99.90;;;;;;4932292;29;20045;-80
2021/07/31 09:50:04;;;;;;;3.95;2.70;;;17.00;99.90;;;;;;4932589;29;20028;-80
2021/07/31 09:52:30;;;;;;;5.63;3.83;;;16.80;99.90;;;;;;4932438;29;20059;-81
2021/07/31 09:54:59;;;;;;;4.13;3.00;;;16.50;99.90;;;;;;4932402;29;20099;-79
2021/07/31 09:57:29;;;;;;;5.57;3.22;;;16.40;99.90;;;;;;4916006;29;20111;-79
2021/07/31 10:00:02;;;;;;;5.97;3.08;;;16.30;99.90;;;;;;4916590;29;20075;-79
2021/07/31 10:02:35;;;;;;;6.13;3.00;;;16.30;99.90;;;;;;4948029;29;20048;-79
2021/07/31 10:05:00;;;;;;;5.20;2.90;;;16.30;99.90;;;;;;4916479;29;20102;-80
2021/07/31 10:07:26;;;;;;;4.95;2.33;;;16.30;99.90;;;;;;4911656;29;20039;-79
2021/07/31 10:09:53;;;;;;;4.53;2.80;;;16.20;99.90;;;;;;4913146;29;20500;-80
2021/07/31 10:12:26;;;;;;;3.83;1.63;;;16.20;99.90;;;;;;4930230;29;20036;-80
2021/07/31 10:14:52;;;;;;;3.47;2.85;;;16.20;99.90;;;;;;4897580;29;20036;-81
2021/07/31 10:17:30;;;;;;;3.20;2.03;;;16.10;99.90;;;;;;4951345;29;20138;-79
2021/07/31 10:19:56;;;;;;;5.63;2.65;;;16.30;99.90;;;;;;4913202;29;20035;-79
2021/07/31 10:22:58;;;;;;;2.53;1.33;;;16.40;99.90;;;;;;4913157;29;20087;-79
2021/07/31 10:25:24;;;;;;;3.38;2.25;;;16.50;99.90;;;;;;4871330;29;20056;-79
2021/07/31 10:27:51;;;;;;;3.22;2.40;;;16.70;99.90;;;;;;4862397;29;20310;-79
2021/07/31 10:30:35;;;;;;;3.55;2.20;;;16.90;99.90;;;;;;4873803;29;20042;-78
2021/07/31 10:33:02;;;;;;;2.78;1.45;;;17.00;99.90;;;;;;4871333;29;20049;-78
2021/07/31 10:35:33;;;;;;;3.25;1.40;;;17.00;99.90;;;;;;4871313;29;20060;-78
2021/07/31 10:38:10;;;;;;;5.18;1.85;;;17.40;99.90;;;;;;4888086;29;20069;-78
2021/07/31 10:40:40;;;;;;;3.30;2.17;;;17.80;99.90;;;;;;4889778;29;20064;-77
2021/07/31 10:43:13;;;;;;;2.90;2.20;;;18.10;99.90;;;;;;4889681;29;20044;-76
2021/07/31 10:45:39;;;;;;;5.70;2.42;;;17.80;99.90;;;;;;4889520;29;20049;-78
2021/07/31 10:48:25;;;;;;;4.97;2.05;;;17.70;99.90;;;;;;4899690;23;20057;-76
2021/07/31 10:50:50;;;;;;;3.17;1.48;;;17.60;99.90;;;;;;4949070;29;20055;-76
2021/07/31 10:53:19;;;;;;;5.82;2.67;;;17.60;99.90;;;;;;4931707;29;20039;-77
2021/07/31 10:55:44;;;;;;;4.28;1.58;;;17.50;99.90;;;;;;4931795;29;20071;-77
2021/07/31 10:58:11;;;;;;;4.20;1.70;;;17.90;99.90;;;;;;4931528;29;20046;-77
2021/07/31 11:00:40;;;;;;;4.55;2.45;;;17.80;99.90;;;;;;4914964;29;20036;-78
2021/07/31 11:03:13;;;;;;;6.97;2.77;;;17.50;99.90;;;;;;4931233;29;20032;-79
2021/07/31 11:05:51;;;;;;;7.35;2.50;;;17.10;99.90;;;;;;4915666;29;20118;-79
2021/07/31 11:08:34;;;;;;;2.40;1.30;;;16.90;99.90;;;;;;4930983;29;20551;-78
2021/07/31 11:11:21;;;;;;;4.00;2.53;;;16.90;99.90;;;;;;4948317;29;20111;-77
2021/07/31 11:13:49;;;;;;;4.75;2.25;;;16.80;99.90;;;;;;4947994;29;20036;-78
2021/07/31 11:16:22;;;;;;;5.00;2.80;;;16.60;99.90;;;;;;4939209;29;20039;-79
2021/07/31 11:18:54;;;;;;;4.13;2.83;;;16.40;99.90;;;;;;4949734;29;20035;-80
2021/07/31 11:21:25;;;;;;;7.20;3.80;;;16.20;99.90;;;;;;4965726;29;20039;-78
2021/07/31 11:23:55;;;;;;;6.78;2.83;;;16.10;99.90;;;;;;4967059;29;20309;-78
2021/07/31 11:26:51;;;;;;;2.30;1.30;;;16.10;99.90;;;;;;4934104;29;20035;-79
2021/07/31 11:29:27;;;;;;;3.05;0.88;;;16.00;99.90;;;;;;4933788;29;20035;-78
2021/07/31 11:32:14;;;;;;;2.78;0.80;;;16.00;99.90;;;;;;4950095;29;20038;-79
2021/07/31 11:34:42;;;;;;;1.77;0.70;;;16.00;99.90;;;;;;4933712;29;20058;-79
2021/07/31 11:37:08;;;;;;;1.88;0.60;;;16.10;99.90;;;;;;4935381;29;20063;-78
2021/07/31 11:39:37;;;;;;;1.30;0.60;;;16.20;99.90;;;;;;4912035;29;20039;-79
2021/07/31 11:42:04;;;;;;;1.65;0.60;;;16.00;99.90;;;;;;4896399;29;20059;-79
2021/07/31 11:44:35;;;;;;;1.95;0.70;;;15.80;99.90;;;;;;4911815;29;20035;-79
2021/07/31 11:47:01;;;;;;;1.10;0.45;;;15.80;99.90;;;;;;4911349;29;20069;-79
2021/07/31 11:49:30;;;;;;;2.83;1.00;;;15.70;99.90;;;;;;4928246;29;20051;-79
2021/07/31 11:52:00;;;;;;;2.50;0.90;;;15.70;99.90;;;;;;4911764;29;20032;-80
2021/07/31 11:54:27;;;;;;;3.85;0.80;;;15.70;99.90;;;;;;4911517;29;20028;-81
2021/07/31 11:56:54;;;;;;;4.15;1.08;;;15.80;99.90;;;;;;4928342;29;20040;-80
2021/07/31 11:59:24;;;;;;;1.95;1.40;;;15.70;99.90;;;;;;4928437;29;20028;-79
2021/07/31 12:01:55;;;;;;;2.70;1.15;;;15.70;99.90;;;;;;4911041;29;20064;-79
2021/07/31 12:04:42;;;;;;;5.50;2.25;;;15.90;99.90;;;;;;4895713;29;20048;-79
2021/07/31 12:07:17;;;;;;;5.88;3.13;;;16.00;99.90;;;;;;4911323;29;20072;-78
2021/07/31 12:09:55;;;;;;;5.35;3.60;;;16.20;99.90;;;;;;4895563;29;20107;-79
2021/07/31 12:12:33;;;;;;;8.57;3.95;;;16.50;99.90;;;;;;4895968;29;20096;-79
2021/07/31 12:15:11;;;;;;;5.88;3.97;;;16.60;99.90;;;;;;4895337;29;20467;-80
2021/07/31 12:17:37;;;;;;;7.75;4.57;;;16.60;99.90;;;;;;4926715;29;20389;-79
2021/07/31 12:20:04;;;;;;;5.72;4.10;;;16.60;99.90;;;;;;4911250;29;20035;-78
2021/07/31 12:22:31;;;;;;;6.35;4.68;;;16.80;99.90;;;;;;4911191;29;20036;-78
2021/07/31 12:25:15;;;;;;;5.70;3.92;;;16.60;99.90;;;;;;4917003;29;20036;-81
2021/07/31 12:28:09;;;;;;;8.75;4.78;;;16.70;99.90;;;;;;4928705;29;20111;-78
2021/07/31 12:30:34;;;;;;;5.30;4.18;;;16.70;99.90;;;;;;4929509;29;20473;-78
2021/07/31 12:33:06;;;;;;;5.53;3.80;;;16.80;99.90;;;;;;4929823;29;20034;-79
2021/07/31 12:35:34;;;;;;;8.32;3.85;;;16.90;99.90;;;;;;4914177;29;20047;-79
2021/07/31 12:38:01;;;;;;;4.18;2.85;;;16.70;99.90;;;;;;4913959;29;20066;-79
2021/07/31 12:40:27;;;;;;;6.35;3.28;;;16.70;99.90;;;;;;4930166;29;20440;-79
2021/07/31 12:42:53;;;;;;;4.90;1.98;;;16.70;99.90;;;;;;4933591;29;20099;-79
2021/07/31 12:45:24;;;;;;;4.53;2.38;;;16.80;99.90;;;;;;4933319;29;20091;-79
2021/07/31 12:47:50;;;;;;;4.55;2.50;;;16.90;99.90;;;;;;4949194;29;20485;-79
2021/07/31 12:50:15;;;;;;;4.53;2.55;;;17.00;99.90;;;;;;4933666;29;20040;-79
2021/07/31 12:52:41;;;;;;;6.28;2.05;;;17.60;99.90;;;;;;4933751;29;20042;-79
2021/07/31 12:55:08;;;;;;;3.85;1.63;;;17.60;99.90;;;;;;4933862;29;20055;-79